sensor_id;sensor_type;location;lat;lon;timestamp;P1;durP1;ratioP1;P2;durP2;ratioP2
22449;SDS011;11392;57.390;-2.468;2022-12-29T00:00:55;108.60;;;8.98;;
22449;SDS011;11392;57.390;-2.468;2022-12-29T00:03:22;81.63;;;8.10;;
22449;SDS011;11392;57.390;-2.468;2022-12-29T00:05:55;91.72;;;9.35;;
22449;SDS011;11392;57.390;-2.468;2022-12-29T00:08:24;128.65;;;10.48;;
22449;SDS011;11392;57.390;-2.468;2022-12-29T00:11:07;50.78;;;5.97;;
22449;SDS011;11392;57.390;-2.468;2022-12-29T00:13:41;6.65;;;4.40;;
22449;SDS011;11392;57.390;-2.468;2022-12-29T00:16:27;8.75;;;4.68;;
22449;SDS011;11392;57.390;-2.468;2022-12-29T00:18:55;6.35;;;4.15;;
22449;SDS011;11392;57.390;-2.468;2022-12-29T00:21:23;5.75;;;4.45;;
22449;SDS011;11392;57.390;-2.468;2022-12-29T00:24:17;5.00;;;3.38;;
22449;SDS011;11392;57.390;-2.468;2022-12-29T00:26:53;7.05;;;4.50;;
22449;SDS011;11392;57.390;-2.468;2022-12-29T00:29:52;9.77;;;4.80;;
22449;SDS011;11392;57.390;-2.468;2022-12-29T00:32:39;129.13;;;11.07;;
22449;SDS011;11392;57.390;-2.468;2022-12-29T00:38:24;24.15;;;5.22;;
22449;SDS011;11392;57.390;-2.468;2022-12-29T00:41:09;16.15;;;4.97;;
22449;SDS011;11392;57.390;-2.468;2022-12-29T00:43:55;6.45;;;4.35;;
22449;SDS011;11392;57.390;-2.468;2022-12-29T00:46:34;5.93;;;4.13;;
22449;SDS011;11392;57.390;-2.468;2022-12-29T00:49:03;81.63;;;7.60;;
22449;SDS011;11392;57.390;-2.468;2022-12-29T00:51:50;15.20;;;5.15;;
22449;SDS011;11392;57.390;-2.468;2022-12-29T00:54:17;103.82;;;8.77;;
22449;SDS011;11392;57.390;-2.468;2022-12-29T00:56:48;30.13;;;5.88;;
22449;SDS011;11392;57.390;-2.468;2022-12-29T00:59:16;3.67;;;2.78;;
22449;SDS011;11392;57.390;-2.468;2022-12-29T01:01:44;3.60;;;3.08;;
22449;SDS011;11392;57.390;-2.468;2022-12-29T01:04:12;4.18;;;2.88;;
22449;SDS011;11392;57.390;-2.468;2022-12-29T01:06:40;3.25;;;2.40;;
22449;SDS011;11392;57.390;-2.468;2022-12-29T01:09:07;3.60;;;2.60;;
22449;SDS011;11392;57.390;-2.468;2022-12-29T01:11:53;2.75;;;2.40;;
22449;SDS011;11392;57.390;-2.468;2022-12-29T01:14:21;2.97;;;2.65;;
22449;SDS011;11392;57.390;-2.468;2022-12-29T01:16:48;4.53;;;3.33;;
22449;SDS011;11392;57.390;-2.468;2022-12-29T01:19:16;4.97;;;3.60;;
22449;SDS011;11392;57.390;-2.468;2022-12-29T01:21:44;5.10;;;3.70;;
22449;SDS011;11392;57.390;-2.468;2022-12-29T01:24:11;6.43;;;4.40;;
22449;SDS011;11392;57.390;-2.468;2022-12-29T01:26:39;5.32;;;3.67;;
22449;SDS011;11392;57.390;-2.468;2022-12-29T01:29:06;6.00;;;4.30;;
22449;SDS011;11392;57.390;-2.468;2022-12-29T01:31:34;4.82;;;3.70;;
22449;SDS011;11392;57.390;-2.468;2022-12-29T01:34:02;6.25;;;4.60;;
22449;SDS011;11392;57.390;-2.468;2022-12-29T01:36:30;6.55;;;4.45;;
22449;SDS011;11392;57.390;-2.468;2022-12-29T01:38:57;7.25;;;5.30;;
22449;SDS011;11392;57.390;-2.468;2022-12-29T01:41:24;5.82;;;4.13;;
22449;SDS011;11392;57.390;-2.468;2022-12-29T01:43:55;6.72;;;4.55;;
22449;SDS011;11392;57.390;-2.468;2022-12-29T01:52:07;5.80;;;4.32;;
22449;SDS011;11392;57.390;-2.468;2022-12-29T01:54:36;6.18;;;4.40;;
22449;SDS011;11392;57.390;-2.468;2022-12-29T01:57:15;5.68;;;4.15;;
22449;SDS011;11392;57.390;-2.468;2022-12-29T01:59:48;5.65;;;4.20;;
22449;SDS011;11392;57.390;-2.468;2022-12-29T02:02:19;4.40;;;3.47;;
22449;SDS011;11392;57.390;-2.468;2022-12-29T02:04:47;3.90;;;3.08;;
22449;SDS011;11392;57.390;-2.468;2022-12-29T02:07:17;2.67;;;2.30;;
22449;SDS011;11392;57.390;-2.468;2022-12-29T02:09:48;4.40;;;3.28;;
22449;SDS011;11392;57.390;-2.468;2022-12-29T02:12:17;3.75;;;2.70;;
22449;SDS011;11392;57.390;-2.468;2022-12-29T02:14:46;4.43;;;3.35;;
22449;SDS011;11392;57.390;-2.468;2022-12-29T02:20:50;2.80;;;1.95;;
22449;SDS011;11392;57.390;-2.468;2022-12-29T02:23:44;1.95;;;1.70;;
22449;SDS011;11392;57.390;-2.468;2022-12-29T02:26:44;1.80;;;1.42;;
22449;SDS011;11392;57.390;-2.468;2022-12-29T02:29:36;1.58;;;1.23;;
22449;SDS011;11392;57.390;-2.468;2022-12-29T02:32:41;1.50;;;1.20;;
22449;SDS011;11392;57.390;-2.468;2022-12-29T02:35:20;2.75;;;0.88;;
22449;SDS011;11392;57.390;-2.468;2022-12-29T02:41:12;0.82;;;0.80;;
22449;SDS011;11392;57.390;-2.468;2022-12-29T02:43:50;0.68;;;0.60;;
22449;SDS011;11392;57.390;-2.468;2022-12-29T02:49:03;0.40;;;0.40;;
22449;SDS011;11392;57.390;-2.468;2022-12-29T02:51:33;0.40;;;0.38;;
22449;SDS011;11392;57.390;-2.468;2022-12-29T02:54:07;0.20;;;0.20;;
22449;SDS011;11392;57.390;-2.468;2022-12-29T02:56:52;0.30;;;0.30;;
22449;SDS011;11392;57.390;-2.468;2022-12-29T02:59:19;0.30;;;0.30;;
22449;SDS011;11392;57.390;-2.468;2022-12-29T03:10:59;0.17;;;0.17;;
22449;SDS011;11392;57.390;-2.468;2022-12-29T03:13:36;0.28;;;0.28;;
22449;SDS011;11392;57.390;-2.468;2022-12-29T03:16:34;0.20;;;0.20;;
22449;SDS011;11392;57.390;-2.468;2022-12-29T03:19:19;0.20;;;0.20;;
22449;SDS011;11392;57.390;-2.468;2022-12-29T03:22:00;0.20;;;0.20;;
22449;SDS011;11392;57.390;-2.468;2022-12-29T03:24:49;0.20;;;0.20;;
22449;SDS011;11392;57.390;-2.468;2022-12-29T03:27:19;0.22;;;0.22;;
22449;SDS011;11392;57.390;-2.468;2022-12-29T03:29:52;0.10;;;0.10;;
22449;SDS011;11392;57.390;-2.468;2022-12-29T03:32:25;0.20;;;0.20;;
22449;SDS011;11392;57.390;-2.468;2022-12-29T03:34:57;0.17;;;0.17;;
22449;SDS011;11392;57.390;-2.468;2022-12-29T03:37:28;0.10;;;0.10;;
22449;SDS011;11392;57.390;-2.468;2022-12-29T03:40:01;0.10;;;0.10;;
22449;SDS011;11392;57.390;-2.468;2022-12-29T03:42:30;0.17;;;0.17;;
22449;SDS011;11392;57.390;-2.468;2022-12-29T03:45:00;0.20;;;0.20;;
22449;SDS011;11392;57.390;-2.468;2022-12-29T03:47:27;0.10;;;0.10;;
22449;SDS011;11392;57.390;-2.468;2022-12-29T03:49:54;0.10;;;0.10;;
22449;SDS011;11392;57.390;-2.468;2022-12-29T03:52:21;0.10;;;0.10;;
22449;SDS011;11392;57.390;-2.468;2022-12-29T03:54:48;0.25;;;0.10;;
22449;SDS011;11392;57.390;-2.468;2022-12-29T03:57:15;0.10;;;0.10;;
22449;SDS011;11392;57.390;-2.468;2022-12-29T03:59:42;0.10;;;0.10;;
22449;SDS011;11392;57.390;-2.468;2022-12-29T04:02:09;0.10;;;0.10;;
22449;SDS011;11392;57.390;-2.468;2022-12-29T04:04:36;1.98;;;0.50;;
22449;SDS011;11392;57.390;-2.468;2022-12-29T04:07:03;0.10;;;0.10;;
22449;SDS011;11392;57.390;-2.468;2022-12-29T04:09:30;0.10;;;0.10;;
22449;SDS011;11392;57.390;-2.468;2022-12-29T04:11:57;0.10;;;0.10;;
22449;SDS011;11392;57.390;-2.468;2022-12-29T04:14:24;0.10;;;0.10;;
22449;SDS011;11392;57.390;-2.468;2022-12-29T04:16:51;0.00;;;0.00;;
22449;SDS011;11392;57.390;-2.468;2022-12-29T04:19:18;0.10;;;0.10;;
22449;SDS011;11392;57.390;-2.468;2022-12-29T04:21:45;0.10;;;0.10;;
22449;SDS011;11392;57.390;-2.468;2022-12-29T04:24:12;0.10;;;0.10;;
22449;SDS011;11392;57.390;-2.468;2022-12-29T04:26:39;0.10;;;0.10;;
22449;SDS011;11392;57.390;-2.468;2022-12-29T04:29:07;0.10;;;0.10;;
22449;SDS011;11392;57.390;-2.468;2022-12-29T04:31:34;0.10;;;0.10;;
22449;SDS011;11392;57.390;-2.468;2022-12-29T04:34:01;0.10;;;0.10;;
22449;SDS011;11392;57.390;-2.468;2022-12-29T04:36:28;0.10;;;0.10;;
22449;SDS011;11392;57.390;-2.468;2022-12-29T04:38:56;0.10;;;0.10;;
22449;SDS011;11392;57.390;-2.468;2022-12-29T04:41:23;0.10;;;0.10;;
22449;SDS011;11392;57.390;-2.468;2022-12-29T04:43:50;0.13;;;0.13;;
22449;SDS011;11392;57.390;-2.468;2022-12-29T04:46:17;0.10;;;0.10;;
22449;SDS011;11392;57.390;-2.468;2022-12-29T04:48:44;0.20;;;0.20;;
22449;SDS011;11392;57.390;-2.468;2022-12-29T04:51:12;0.10;;;0.10;;
22449;SDS011;11392;57.390;-2.468;2022-12-29T04:53:39;0.10;;;0.10;;
22449;SDS011;11392;57.390;-2.468;2022-12-29T04:56:06;0.10;;;0.10;;
22449;SDS011;11392;57.390;-2.468;2022-12-29T04:58:33;1.23;;;0.10;;
22449;SDS011;11392;57.390;-2.468;2022-12-29T05:01:00;0.10;;;0.10;;
22449;SDS011;11392;57.390;-2.468;2022-12-29T05:03:27;0.10;;;0.10;;
22449;SDS011;11392;57.390;-2.468;2022-12-29T05:05:55;0.00;;;0.00;;
22449;SDS011;11392;57.390;-2.468;2022-12-29T05:08:23;0.10;;;0.10;;
22449;SDS011;11392;57.390;-2.468;2022-12-29T05:10:53;0.10;;;0.10;;
22449;SDS011;11392;57.390;-2.468;2022-12-29T05:13:20;0.10;;;0.10;;
22449;SDS011;11392;57.390;-2.468;2022-12-29T05:15:49;0.10;;;0.10;;
22449;SDS011;11392;57.390;-2.468;2022-12-29T05:18:18;0.10;;;0.10;;
22449;SDS011;11392;57.390;-2.468;2022-12-29T05:20:45;0.10;;;0.10;;
22449;SDS011;11392;57.390;-2.468;2022-12-29T05:23:13;0.10;;;0.10;;
22449;SDS011;11392;57.390;-2.468;2022-12-29T05:25:40;0.10;;;0.10;;
22449;SDS011;11392;57.390;-2.468;2022-12-29T05:28:07;0.10;;;0.10;;
22449;SDS011;11392;57.390;-2.468;2022-12-29T05:30:34;0.03;;;0.03;;
22449;SDS011;11392;57.390;-2.468;2022-12-29T05:33:01;0.10;;;0.10;;
22449;SDS011;11392;57.390;-2.468;2022-12-29T05:35:28;0.10;;;0.10;;
22449;SDS011;11392;57.390;-2.468;2022-12-29T05:37:55;0.20;;;0.20;;
22449;SDS011;11392;57.390;-2.468;2022-12-29T05:40:22;0.10;;;0.10;;
22449;SDS011;11392;57.390;-2.468;2022-12-29T05:42:49;0.10;;;0.10;;
22449;SDS011;11392;57.390;-2.468;2022-12-29T05:45:16;0.10;;;0.10;;
22449;SDS011;11392;57.390;-2.468;2022-12-29T05:47:43;0.10;;;0.10;;
22449;SDS011;11392;57.390;-2.468;2022-12-29T05:50:10;0.10;;;0.10;;
22449;SDS011;11392;57.390;-2.468;2022-12-29T05:52:37;0.10;;;0.10;;
22449;SDS011;11392;57.390;-2.468;2022-12-29T05:55:04;0.10;;;0.10;;
22449;SDS011;11392;57.390;-2.468;2022-12-29T05:57:32;0.20;;;0.20;;
22449;SDS011;11392;57.390;-2.468;2022-12-29T05:59:59;0.68;;;0.20;;
22449;SDS011;11392;57.390;-2.468;2022-12-29T06:02:26;1.05;;;0.10;;
22449;SDS011;11392;57.390;-2.468;2022-12-29T06:04:53;0.00;;;0.00;;
22449;SDS011;11392;57.390;-2.468;2022-12-29T06:07:20;0.17;;;0.13;;
22449;SDS011;11392;57.390;-2.468;2022-12-29T06:09:47;0.10;;;0.10;;
22449;SDS011;11392;57.390;-2.468;2022-12-29T06:12:14;0.20;;;0.10;;
22449;SDS011;11392;57.390;-2.468;2022-12-29T06:14:41;0.10;;;0.10;;
22449;SDS011;11392;57.390;-2.468;2022-12-29T06:17:08;0.10;;;0.10;;
22449;SDS011;11392;57.390;-2.468;2022-12-29T06:19:35;0.10;;;0.10;;
22449;SDS011;11392;57.390;-2.468;2022-12-29T06:22:02;0.15;;;0.15;;
22449;SDS011;11392;57.390;-2.468;2022-12-29T06:24:29;0.10;;;0.10;;
22449;SDS011;11392;57.390;-2.468;2022-12-29T06:26:56;0.10;;;0.10;;
22449;SDS011;11392;57.390;-2.468;2022-12-29T06:29:23;0.10;;;0.10;;
22449;SDS011;11392;57.390;-2.468;2022-12-29T06:31:50;0.20;;;0.10;;
22449;SDS011;11392;57.390;-2.468;2022-12-29T06:34:22;0.10;;;0.10;;
22449;SDS011;11392;57.390;-2.468;2022-12-29T06:36:50;0.15;;;0.15;;
22449;SDS011;11392;57.390;-2.468;2022-12-29T06:39:17;0.10;;;0.10;;
22449;SDS011;11392;57.390;-2.468;2022-12-29T06:41:44;0.10;;;0.10;;
22449;SDS011;11392;57.390;-2.468;2022-12-29T06:44:11;0.13;;;0.13;;
22449;SDS011;11392;57.390;-2.468;2022-12-29T06:46:38;0.20;;;0.20;;
22449;SDS011;11392;57.390;-2.468;2022-12-29T06:49:05;0.20;;;0.20;;
22449;SDS011;11392;57.390;-2.468;2022-12-29T06:51:32;0.10;;;0.10;;
22449;SDS011;11392;57.390;-2.468;2022-12-29T06:53:59;0.20;;;0.20;;
22449;SDS011;11392;57.390;-2.468;2022-12-29T06:56:26;0.40;;;0.30;;
22449;SDS011;11392;57.390;-2.468;2022-12-29T06:58:53;0.10;;;0.10;;
22449;SDS011;11392;57.390;-2.468;2022-12-29T07:01:20;0.20;;;0.20;;
22449;SDS011;11392;57.390;-2.468;2022-12-29T07:03:47;0.43;;;0.17;;
22449;SDS011;11392;57.390;-2.468;2022-12-29T07:06:14;0.20;;;0.20;;
22449;SDS011;11392;57.390;-2.468;2022-12-29T07:08:41;1.40;;;0.28;;
22449;SDS011;11392;57.390;-2.468;2022-12-29T07:11:09;0.60;;;0.22;;
22449;SDS011;11392;57.390;-2.468;2022-12-29T07:13:36;0.10;;;0.10;;
22449;SDS011;11392;57.390;-2.468;2022-12-29T07:16:06;0.20;;;0.20;;
22449;SDS011;11392;57.390;-2.468;2022-12-29T07:18:35;0.10;;;0.10;;
22449;SDS011;11392;57.390;-2.468;2022-12-29T07:21:02;0.20;;;0.15;;
22449;SDS011;11392;57.390;-2.468;2022-12-29T07:23:30;0.25;;;0.25;;
22449;SDS011;11392;57.390;-2.468;2022-12-29T07:26:04;1.17;;;0.20;;
22449;SDS011;11392;57.390;-2.468;2022-12-29T07:28:34;0.20;;;0.20;;
22449;SDS011;11392;57.390;-2.468;2022-12-29T07:31:02;0.80;;;0.20;;
22449;SDS011;11392;57.390;-2.468;2022-12-29T07:33:29;0.20;;;0.20;;
22449;SDS011;11392;57.390;-2.468;2022-12-29T07:35:57;0.13;;;0.13;;
22449;SDS011;11392;57.390;-2.468;2022-12-29T07:38:25;1.98;;;0.30;;
22449;SDS011;11392;57.390;-2.468;2022-12-29T07:40:55;0.13;;;0.13;;
22449;SDS011;11392;57.390;-2.468;2022-12-29T07:43:24;0.20;;;0.20;;
22449;SDS011;11392;57.390;-2.468;2022-12-29T07:45:51;0.30;;;0.30;;
22449;SDS011;11392;57.390;-2.468;2022-12-29T07:48:19;2.08;;;0.20;;
22449;SDS011;11392;57.390;-2.468;2022-12-29T07:50:46;0.30;;;0.30;;
22449;SDS011;11392;57.390;-2.468;2022-12-29T07:53:13;0.85;;;0.20;;
22449;SDS011;11392;57.390;-2.468;2022-12-29T07:55:40;0.40;;;0.30;;
22449;SDS011;11392;57.390;-2.468;2022-12-29T07:58:07;0.73;;;0.40;;
22449;SDS011;11392;57.390;-2.468;2022-12-29T08:00:34;0.50;;;0.22;;
22449;SDS011;11392;57.390;-2.468;2022-12-29T08:03:01;0.73;;;0.40;;
22449;SDS011;11392;57.390;-2.468;2022-12-29T08:05:28;0.63;;;0.52;;
22449;SDS011;11392;57.390;-2.468;2022-12-29T08:07:56;1.20;;;0.40;;
22449;SDS011;11392;57.390;-2.468;2022-12-29T08:10:23;0.40;;;0.30;;
22449;SDS011;11392;57.390;-2.468;2022-12-29T08:12:50;1.17;;;0.20;;
22449;SDS011;11392;57.390;-2.468;2022-12-29T08:15:17;1.27;;;0.30;;
22449;SDS011;11392;57.390;-2.468;2022-12-29T08:17:44;0.80;;;0.30;;
22449;SDS011;11392;57.390;-2.468;2022-12-29T08:20:11;0.15;;;0.15;;
22449;SDS011;11392;57.390;-2.468;2022-12-29T08:22:39;0.13;;;0.13;;
22449;SDS011;11392;57.390;-2.468;2022-12-29T08:25:07;0.20;;;0.20;;
22449;SDS011;11392;57.390;-2.468;2022-12-29T08:27:34;0.20;;;0.20;;
22449;SDS011;11392;57.390;-2.468;2022-12-29T08:30:01;0.10;;;0.10;;
22449;SDS011;11392;57.390;-2.468;2022-12-29T08:32:28;0.28;;;0.28;;
22449;SDS011;11392;57.390;-2.468;2022-12-29T08:34:56;0.30;;;0.20;;
22449;SDS011;11392;57.390;-2.468;2022-12-29T08:37:23;0.30;;;0.30;;
22449;SDS011;11392;57.390;-2.468;2022-12-29T08:39:56;0.20;;;0.20;;
22449;SDS011;11392;57.390;-2.468;2022-12-29T08:42:24;0.20;;;0.20;;
22449;SDS011;11392;57.390;-2.468;2022-12-29T08:44:57;0.20;;;0.20;;
22449;SDS011;11392;57.390;-2.468;2022-12-29T08:47:25;1.08;;;0.20;;
22449;SDS011;11392;57.390;-2.468;2022-12-29T08:49:52;0.20;;;0.20;;
22449;SDS011;11392;57.390;-2.468;2022-12-29T08:52:19;0.20;;;0.20;;
22449;SDS011;11392;57.390;-2.468;2022-12-29T08:54:46;0.10;;;0.10;;
22449;SDS011;11392;57.390;-2.468;2022-12-29T08:57:13;0.75;;;0.20;;
22449;SDS011;11392;57.390;-2.468;2022-12-29T08:59:40;0.38;;;0.30;;
22449;SDS011;11392;57.390;-2.468;2022-12-29T09:02:10;0.20;;;0.20;;
22449;SDS011;11392;57.390;-2.468;2022-12-29T09:04:40;0.15;;;0.15;;
22449;SDS011;11392;57.390;-2.468;2022-12-29T09:07:07;0.40;;;0.40;;
22449;SDS011;11392;57.390;-2.468;2022-12-29T09:09:34;0.30;;;0.20;;
22449;SDS011;11392;57.390;-2.468;2022-12-29T09:12:01;0.85;;;0.40;;
22449;SDS011;11392;57.390;-2.468;2022-12-29T09:14:28;0.40;;;0.40;;
22449;SDS011;11392;57.390;-2.468;2022-12-29T09:16:55;1.13;;;0.95;;
22449;SDS011;11392;57.390;-2.468;2022-12-29T09:19:40;0.40;;;0.38;;
22449;SDS011;11392;57.390;-2.468;2022-12-29T09:22:08;0.63;;;0.40;;
22449;SDS011;11392;57.390;-2.468;2022-12-29T09:24:35;0.45;;;0.40;;
22449;SDS011;11392;57.390;-2.468;2022-12-29T09:27:02;0.68;;;0.50;;
22449;SDS011;11392;57.390;-2.468;2022-12-29T09:29:28;0.40;;;0.40;;
22449;SDS011;11392;57.390;-2.468;2022-12-29T09:31:55;0.88;;;0.38;;
22449;SDS011;11392;57.390;-2.468;2022-12-29T09:34:22;0.22;;;0.22;;
22449;SDS011;11392;57.390;-2.468;2022-12-29T09:36:49;0.17;;;0.17;;
22449;SDS011;11392;57.390;-2.468;2022-12-29T09:39:16;0.20;;;0.20;;
22449;SDS011;11392;57.390;-2.468;2022-12-29T09:41:58;0.22;;;0.22;;
22449;SDS011;11392;57.390;-2.468;2022-12-29T09:47:32;0.30;;;0.30;;
22449;SDS011;11392;57.390;-2.468;2022-12-29T09:50:46;0.25;;;0.25;;
22449;SDS011;11392;57.390;-2.468;2022-12-29T09:52:59;0.60;;;0.30;;
22449;SDS011;11392;57.390;-2.468;2022-12-29T09:55:51;0.30;;;0.30;;
22449;SDS011;11392;57.390;-2.468;2022-12-29T09:58:36;0.32;;;0.32;;
22449;SDS011;11392;57.390;-2.468;2022-12-29T10:01:17;0.45;;;0.35;;
22449;SDS011;11392;57.390;-2.468;2022-12-29T10:03:57;0.40;;;0.40;;
22449;SDS011;11392;57.390;-2.468;2022-12-29T10:06:32;0.98;;;0.57;;
22449;SDS011;11392;57.390;-2.468;2022-12-29T10:09:30;0.30;;;0.30;;
22449;SDS011;11392;57.390;-2.468;2022-12-29T10:23:52;0.75;;;0.30;;
22449;SDS011;11392;57.390;-2.468;2022-12-29T10:26:30;0.50;;;0.40;;
22449;SDS011;11392;57.390;-2.468;2022-12-29T10:29:04;1.27;;;0.60;;
22449;SDS011;11392;57.390;-2.468;2022-12-29T10:31:34;0.40;;;0.40;;
22449;SDS011;11392;57.390;-2.468;2022-12-29T10:34:19;0.55;;;0.50;;
22449;SDS011;11392;57.390;-2.468;2022-12-29T10:36:51;0.85;;;0.50;;
22449;SDS011;11392;57.390;-2.468;2022-12-29T10:39:31;0.40;;;0.40;;
22449;SDS011;11392;57.390;-2.468;2022-12-29T10:42:04;0.47;;;0.47;;
22449;SDS011;11392;57.390;-2.468;2022-12-29T10:44:35;0.50;;;0.50;;
22449;SDS011;11392;57.390;-2.468;2022-12-29T10:47:04;0.40;;;0.40;;
22449;SDS011;11392;57.390;-2.468;2022-12-29T10:49:37;0.68;;;0.50;;
22449;SDS011;11392;57.390;-2.468;2022-12-29T10:52:09;0.73;;;0.40;;
22449;SDS011;11392;57.390;-2.468;2022-12-29T10:57:32;0.90;;;0.40;;
22449;SDS011;11392;57.390;-2.468;2022-12-29T11:05:49;0.77;;;0.52;;
22449;SDS011;11392;57.390;-2.468;2022-12-29T11:08:50;1.48;;;0.50;;
22449;SDS011;11392;57.390;-2.468;2022-12-29T11:12:26;1.65;;;0.20;;
22449;SDS011;11392;57.390;-2.468;2022-12-29T11:17:48;0.90;;;0.50;;
22449;SDS011;11392;57.390;-2.468;2022-12-29T11:22:53;0.88;;;0.43;;
22449;SDS011;11392;57.390;-2.468;2022-12-29T11:25:21;0.85;;;0.45;;
22449;SDS011;11392;57.390;-2.468;2022-12-29T11:30:40;0.50;;;0.38;;
22449;SDS011;11392;57.390;-2.468;2022-12-29T11:33:08;0.73;;;0.40;;
22449;SDS011;11392;57.390;-2.468;2022-12-29T11:35:36;0.43;;;0.43;;
22449;SDS011;11392;57.390;-2.468;2022-12-29T11:38:23;0.52;;;0.50;;
22449;SDS011;11392;57.390;-2.468;2022-12-29T11:40:59;0.77;;;0.63;;
22449;SDS011;11392;57.390;-2.468;2022-12-29T11:45:59;0.68;;;0.50;;
22449;SDS011;11392;57.390;-2.468;2022-12-29T11:48:39;1.05;;;0.57;;
22449;SDS011;11392;57.390;-2.468;2022-12-29T11:51:07;2.05;;;0.50;;
22449;SDS011;11392;57.390;-2.468;2022-12-29T11:56:12;1.50;;;0.50;;
22449;SDS011;11392;57.390;-2.468;2022-12-29T11:58:43;0.50;;;0.47;;
22449;SDS011;11392;57.390;-2.468;2022-12-29T12:03:44;1.25;;;0.32;;
22449;SDS011;11392;57.390;-2.468;2022-12-29T12:06:30;0.63;;;0.40;;
22449;SDS011;11392;57.390;-2.468;2022-12-29T12:09:06;0.40;;;0.40;;
22449;SDS011;11392;57.390;-2.468;2022-12-29T12:11:40;0.70;;;0.57;;
22449;SDS011;11392;57.390;-2.468;2022-12-29T12:17:10;0.50;;;0.50;;
22449;SDS011;11392;57.390;-2.468;2022-12-29T12:19:46;0.70;;;0.38;;
22449;SDS011;11392;57.390;-2.468;2022-12-29T12:25:39;0.50;;;0.50;;
22449;SDS011;11392;57.390;-2.468;2022-12-29T12:28:19;1.70;;;0.82;;
22449;SDS011;11392;57.390;-2.468;2022-12-29T12:30:52;2.60;;;0.90;;
22449;SDS011;11392;57.390;-2.468;2022-12-29T12:33:37;0.80;;;0.77;;
22449;SDS011;11392;57.390;-2.468;2022-12-29T12:36:19;1.35;;;0.70;;
22449;SDS011;11392;57.390;-2.468;2022-12-29T12:38:53;1.20;;;0.65;;
22449;SDS011;11392;57.390;-2.468;2022-12-29T12:44:00;1.02;;;0.60;;
22449;SDS011;11392;57.390;-2.468;2022-12-29T12:49:11;0.45;;;0.40;;
22449;SDS011;11392;57.390;-2.468;2022-12-29T13:11:50;1.05;;;0.40;;
22449;SDS011;11392;57.390;-2.468;2022-12-29T13:14:33;0.30;;;0.30;;
22449;SDS011;11392;57.390;-2.468;2022-12-29T13:17:17;0.50;;;0.30;;
22449;SDS011;11392;57.390;-2.468;2022-12-29T13:20:10;0.20;;;0.20;;
22449;SDS011;11392;57.390;-2.468;2022-12-29T13:25:34;1.30;;;0.80;;
22449;SDS011;11392;57.390;-2.468;2022-12-29T13:28:12;0.60;;;0.60;;
22449;SDS011;11392;57.390;-2.468;2022-12-29T13:34:05;2.78;;;0.50;;
22449;SDS011;11392;57.390;-2.468;2022-12-29T13:36:54;0.55;;;0.40;;
22449;SDS011;11392;57.390;-2.468;2022-12-29T13:41:55;0.52;;;0.52;;
22449;SDS011;11392;57.390;-2.468;2022-12-29T13:47:01;1.63;;;1.00;;
22449;SDS011;11392;57.390;-2.468;2022-12-29T13:49:41;1.55;;;0.60;;
22449;SDS011;11392;57.390;-2.468;2022-12-29T13:52:18;0.68;;;0.60;;
22449;SDS011;11392;57.390;-2.468;2022-12-29T14:01:06;2.00;;;0.55;;
22449;SDS011;11392;57.390;-2.468;2022-12-29T14:06:27;0.50;;;0.50;;
22449;SDS011;11392;57.390;-2.468;2022-12-29T14:09:02;0.90;;;0.57;;
22449;SDS011;11392;57.390;-2.468;2022-12-29T14:11:38;0.70;;;0.40;;
22449;SDS011;11392;57.390;-2.468;2022-12-29T14:14:11;3.28;;;0.70;;
22449;SDS011;11392;57.390;-2.468;2022-12-29T14:16:47;1.08;;;0.60;;
22449;SDS011;11392;57.390;-2.468;2022-12-29T14:19:16;0.70;;;0.70;;
22449;SDS011;11392;57.390;-2.468;2022-12-29T14:21:57;0.73;;;0.63;;
22449;SDS011;11392;57.390;-2.468;2022-12-29T14:27:22;1.00;;;0.90;;
22449;SDS011;11392;57.390;-2.468;2022-12-29T14:29:48;1.17;;;1.05;;
22449;SDS011;11392;57.390;-2.468;2022-12-29T14:34:47;3.15;;;0.98;;
22449;SDS011;11392;57.390;-2.468;2022-12-29T14:37:25;1.92;;;1.45;;
22449;SDS011;11392;57.390;-2.468;2022-12-29T14:40:14;1.25;;;0.90;;
22449;SDS011;11392;57.390;-2.468;2022-12-29T14:42:46;2.22;;;0.80;;
22449;SDS011;11392;57.390;-2.468;2022-12-29T14:47:43;0.80;;;0.70;;
22449;SDS011;11392;57.390;-2.468;2022-12-29T14:57:44;0.73;;;0.65;;
22449;SDS011;11392;57.390;-2.468;2022-12-29T15:00:18;1.75;;;0.70;;
22449;SDS011;11392;57.390;-2.468;2022-12-29T15:03:06;0.65;;;0.60;;
22449;SDS011;11392;57.390;-2.468;2022-12-29T15:08:38;0.35;;;0.35;;
22449;SDS011;11392;57.390;-2.468;2022-12-29T15:11:24;0.68;;;0.60;;
22449;SDS011;11392;57.390;-2.468;2022-12-29T15:14:28;0.45;;;0.35;;
22449;SDS011;11392;57.390;-2.468;2022-12-29T15:16:58;0.32;;;0.32;;
22449;SDS011;11392;57.390;-2.468;2022-12-29T15:19:26;0.40;;;0.40;;
22449;SDS011;11392;57.390;-2.468;2022-12-29T15:21:54;1.15;;;0.70;;
22449;SDS011;11392;57.390;-2.468;2022-12-29T15:24:22;0.70;;;0.70;;
22449;SDS011;11392;57.390;-2.468;2022-12-29T15:26:51;1.25;;;1.10;;
22449;SDS011;11392;57.390;-2.468;2022-12-29T15:29:40;0.75;;;0.75;;
22449;SDS011;11392;57.390;-2.468;2022-12-29T15:34:45;0.85;;;0.70;;
22449;SDS011;11392;57.390;-2.468;2022-12-29T15:37:18;1.05;;;0.88;;
22449;SDS011;11392;57.390;-2.468;2022-12-29T15:39:47;0.82;;;0.70;;
22449;SDS011;11392;57.390;-2.468;2022-12-29T15:45:04;0.70;;;0.70;;
22449;SDS011;11392;57.390;-2.468;2022-12-29T15:47:36;1.02;;;0.70;;
22449;SDS011;11392;57.390;-2.468;2022-12-29T15:50:06;0.60;;;0.60;;
22449;SDS011;11392;57.390;-2.468;2022-12-29T15:52:56;0.73;;;0.60;;
22449;SDS011;11392;57.390;-2.468;2022-12-29T15:55:31;1.38;;;0.60;;
22449;SDS011;11392;57.390;-2.468;2022-12-29T15:58:04;0.40;;;0.40;;
22449;SDS011;11392;57.390;-2.468;2022-12-29T16:00:46;0.63;;;0.52;;
22449;SDS011;11392;57.390;-2.468;2022-12-29T16:03:15;1.58;;;0.50;;
22449;SDS011;11392;57.390;-2.468;2022-12-29T16:05:49;0.30;;;0.30;;
22449;SDS011;11392;57.390;-2.468;2022-12-29T16:08:21;0.30;;;0.30;;
22449;SDS011;11392;57.390;-2.468;2022-12-29T16:10:51;0.30;;;0.30;;
22449;SDS011;11392;57.390;-2.468;2022-12-29T16:13:25;1.05;;;0.30;;
22449;SDS011;11392;57.390;-2.468;2022-12-29T16:16:11;0.32;;;0.30;;
22449;SDS011;11392;57.390;-2.468;2022-12-29T16:18:43;0.43;;;0.43;;
22449;SDS011;11392;57.390;-2.468;2022-12-29T16:21:19;0.30;;;0.30;;
22449;SDS011;11392;57.390;-2.468;2022-12-29T16:23:54;0.68;;;0.40;;
22449;SDS011;11392;57.390;-2.468;2022-12-29T16:26:25;0.28;;;0.28;;
22449;SDS011;11392;57.390;-2.468;2022-12-29T16:28:56;0.50;;;0.47;;
22449;SDS011;11392;57.390;-2.468;2022-12-29T16:34:13;0.30;;;0.30;;
22449;SDS011;11392;57.390;-2.468;2022-12-29T16:43:02;1.40;;;1.08;;
22449;SDS011;11392;57.390;-2.468;2022-12-29T16:50:40;0.93;;;0.50;;
22449;SDS011;11392;57.390;-2.468;2022-12-29T16:53:23;1.13;;;0.20;;
22449;SDS011;11392;57.390;-2.468;2022-12-29T16:55:53;0.20;;;0.20;;
22449;SDS011;11392;57.390;-2.468;2022-12-29T16:58:22;0.20;;;0.20;;
22449;SDS011;11392;57.390;-2.468;2022-12-29T17:01:00;0.20;;;0.20;;
22449;SDS011;11392;57.390;-2.468;2022-12-29T17:03:40;0.20;;;0.20;;
22449;SDS011;11392;57.390;-2.468;2022-12-29T17:06:15;0.10;;;0.10;;
22449;SDS011;11392;57.390;-2.468;2022-12-29T17:08:44;0.10;;;0.10;;
22449;SDS011;11392;57.390;-2.468;2022-12-29T17:11:28;0.20;;;0.20;;
22449;SDS011;11392;57.390;-2.468;2022-12-29T17:22:46;1.30;;;0.30;;
22449;SDS011;11392;57.390;-2.468;2022-12-29T17:25:15;1.60;;;0.20;;
22449;SDS011;11392;57.390;-2.468;2022-12-29T17:27:50;0.20;;;0.20;;
22449;SDS011;11392;57.390;-2.468;2022-12-29T17:30:25;0.20;;;0.20;;
22449;SDS011;11392;57.390;-2.468;2022-12-29T17:33:05;0.32;;;0.30;;
22449;SDS011;11392;57.390;-2.468;2022-12-29T17:35:38;0.15;;;0.15;;
22449;SDS011;11392;57.390;-2.468;2022-12-29T17:38:25;0.30;;;0.30;;
22449;SDS011;11392;57.390;-2.468;2022-12-29T17:40:55;0.30;;;0.30;;
22449;SDS011;11392;57.390;-2.468;2022-12-29T17:43:22;0.30;;;0.30;;
22449;SDS011;11392;57.390;-2.468;2022-12-29T17:45:53;0.25;;;0.25;;
22449;SDS011;11392;57.390;-2.468;2022-12-29T17:48:22;1.85;;;0.47;;